createdAt,value
2023-03-11T00:01:00.364Z,5.57
2023-03-11T00:03:31.079Z,5.65
2023-03-11T00:06:02.936Z,5.38
2023-03-11T00:08:32.654Z,5.43
2023-03-11T00:11:02.169Z,5.33
2023-03-11T00:13:33.021Z,5.73
2023-03-11T00:16:02.224Z,5.68
2023-03-11T00:18:33.153Z,5.72
2023-03-11T00:21:02.639Z,5.79
2023-03-11T00:23:32.813Z,5.72
2023-03-11T00:26:03.346Z,5.67
2023-03-11T00:28:34.386Z,5.37
2023-03-11T00:31:04.847Z,5.81
2023-03-11T00:33:35.806Z,5.74
2023-03-11T00:36:07.903Z,5.67
2023-03-11T00:38:37.302Z,5.73
2023-03-11T00:41:06.449Z,5.59
2023-03-11T00:43:35.966Z,5.62
2023-03-11T00:46:06.359Z,5.47
2023-03-11T00:48:37.000Z,5.79
2023-03-11T00:51:09.503Z,5.73
2023-03-11T00:53:41.373Z,5.70
2023-03-11T00:56:15.284Z,5.60
2023-03-11T00:58:45.805Z,5.57
2023-03-11T01:01:18.433Z,5.44
2023-03-11T01:03:50.242Z,5.43
2023-03-11T01:06:19.374Z,5.20
2023-03-11T01:08:48.391Z,5.30
2023-03-11T01:11:18.885Z,5.54
2023-03-11T01:13:48.247Z,5.13
2023-03-11T01:16:17.404Z,5.48
2023-03-11T01:18:46.715Z,5.51
2023-03-11T01:21:17.491Z,5.37
2023-03-11T01:23:46.767Z,5.53
2023-03-11T01:26:16.521Z,5.55
2023-03-11T01:28:45.859Z,5.42
2023-03-11T01:31:15.164Z,5.50
2023-03-11T01:33:44.548Z,5.49
2023-03-11T01:36:14.461Z,5.56
2023-03-11T01:38:47.114Z,5.53
2023-03-11T01:41:16.873Z,4.89
2023-03-11T01:43:54.672Z,5.42
2023-03-11T01:46:29.386Z,5.67
2023-03-11T01:49:00.438Z,5.35
2023-03-11T01:51:37.029Z,5.80
2023-03-11T01:54:12.976Z,5.60
2023-03-11T01:56:46.740Z,5.63
2023-03-11T01:59:24.002Z,5.64
2023-03-11T02:02:02.597Z,5.87
2023-03-11T02:04:34.713Z,5.63
2023-03-11T02:07:04.207Z,5.78
2023-03-11T02:09:35.119Z,5.61
2023-03-11T02:12:05.346Z,5.68
2023-03-11T02:14:36.363Z,5.78
2023-03-11T02:17:06.586Z,5.74
2023-03-11T02:19:47.691Z,5.49
2023-03-11T02:22:17.946Z,5.95
2023-03-11T02:24:57.353Z,5.88
2023-03-11T02:27:29.413Z,5.84
2023-03-11T02:30:01.042Z,5.96
2023-03-11T02:32:34.443Z,5.66
2023-03-11T02:35:04.096Z,5.94
2023-03-11T02:37:33.440Z,6.05
2023-03-11T02:40:36.696Z,6.14
2023-03-11T02:43:11.032Z,6.03
2023-03-11T02:45:42.771Z,5.89
2023-03-11T02:48:14.324Z,5.98
2023-03-11T02:50:45.033Z,5.58
2023-03-11T02:53:15.015Z,5.82
2023-03-11T02:55:44.411Z,6.05
2023-03-11T02:58:15.083Z,6.03
2023-03-11T03:00:44.369Z,6.05
2023-03-11T03:03:13.755Z,5.95
2023-03-11T03:05:42.935Z,6.03
2023-03-11T03:08:12.516Z,6.05
2023-03-11T03:10:43.127Z,5.90
2023-03-11T03:13:12.468Z,5.65
2023-03-11T03:15:43.788Z,5.56
2023-03-11T03:18:13.023Z,5.66
2023-03-11T03:20:42.454Z,5.60
2023-03-11T03:23:11.935Z,5.80
2023-03-11T03:25:44.324Z,5.78
2023-03-11T03:28:14.463Z,5.82
2023-03-11T03:30:48.431Z,5.86
2023-03-11T03:33:17.542Z,5.44
2023-03-11T03:35:47.452Z,5.77
2023-03-11T03:38:21.661Z,5.70
2023-03-11T03:40:53.216Z,5.59
2023-03-11T03:43:23.866Z,5.66
2023-03-11T03:46:01.998Z,5.46
2023-03-11T03:48:35.416Z,5.59
2023-03-11T03:51:09.812Z,5.52
2023-03-11T03:53:43.863Z,5.26
2023-03-11T03:56:15.414Z,5.60
2023-03-11T03:58:46.052Z,5.07
2023-03-11T04:01:16.928Z,5.42
2023-03-11T04:03:46.457Z,5.39
2023-03-11T04:06:19.947Z,5.40
2023-03-11T04:08:54.264Z,5.62
2023-03-11T04:11:28.013Z,5.53
2023-03-11T04:13:57.625Z,5.49
2023-03-11T04:16:28.473Z,5.55
2023-03-11T04:19:04.836Z,5.36
2023-03-11T04:21:34.798Z,5.37
2023-03-11T04:24:04.673Z,5.56
2023-03-11T04:26:37.957Z,5.28
2023-03-11T04:29:10.678Z,5.31
2023-03-11T04:31:46.119Z,5.45
2023-03-11T04:34:15.361Z,4.97
2023-03-11T04:36:44.618Z,5.35
2023-03-11T04:39:16.682Z,5.38
2023-03-11T04:41:47.966Z,5.03
2023-03-11T04:44:20.857Z,5.34
2023-03-11T04:46:53.107Z,5.39
2023-03-11T04:49:22.297Z,5.31
2023-03-11T04:51:52.977Z,5.33
2023-03-11T04:54:24.563Z,5.36
2023-03-11T04:56:54.098Z,5.36
2023-03-11T04:59:24.523Z,5.37
2023-03-11T05:01:56.249Z,5.22
2023-03-11T05:04:25.549Z,5.51
2023-03-11T05:06:54.758Z,5.47
2023-03-11T05:09:26.872Z,5.83
2023-03-11T05:11:56.744Z,5.76
2023-03-11T05:14:26.287Z,5.85
2023-03-11T05:16:58.709Z,5.95
2023-03-11T05:19:35.199Z,6.18
2023-03-11T05:22:11.718Z,6.28
2023-03-11T05:24:41.744Z,5.88
2023-03-11T05:27:11.020Z,6.32
2023-03-11T05:29:41.588Z,5.86
2023-03-11T05:32:14.902Z,5.98
2023-03-11T05:34:46.557Z,5.84
2023-03-11T05:37:17.801Z,6.10
2023-03-11T05:39:49.470Z,6.10
2023-03-11T05:42:20.982Z,6.10
2023-03-11T05:44:52.559Z,6.17
2023-03-11T05:47:24.723Z,6.32
2023-03-11T05:49:53.959Z,6.35
2023-03-11T05:52:24.498Z,6.53
2023-03-11T05:54:54.302Z,6.84
2023-03-11T05:57:28.357Z,7.02
2023-03-11T05:59:58.612Z,6.58
2023-03-11T06:02:29.273Z,6.89
2023-03-11T06:04:58.310Z,6.93
2023-03-11T06:07:27.661Z,6.89
2023-03-11T06:09:56.793Z,6.79
2023-03-11T06:12:26.330Z,6.66
2023-03-11T06:15:18.665Z,6.69
2023-03-11T06:17:50.780Z,7.11
2023-03-11T06:20:20.567Z,7.04
2023-03-11T06:22:50.367Z,7.27
2023-03-11T06:25:21.309Z,7.05
2023-03-11T06:27:52.607Z,7.31
2023-03-11T06:30:25.050Z,7.34
2023-03-11T06:33:11.178Z,7.47
2023-03-11T06:35:43.000Z,7.56
2023-03-11T06:38:13.013Z,7.20
2023-03-11T06:40:41.941Z,7.27
2023-03-11T06:43:11.133Z,7.52
2023-03-11T06:45:43.139Z,7.41
2023-03-11T06:48:13.758Z,7.88
2023-03-11T06:51:06.333Z,7.72
2023-03-11T06:53:34.666Z,7.45
2023-03-11T06:56:07.125Z,6.93
2023-03-11T06:58:43.677Z,7.80
2023-03-11T07:01:16.174Z,7.84
2023-03-11T07:03:49.705Z,7.91
2023-03-11T07:06:20.902Z,7.63
2023-03-11T07:08:51.729Z,7.90
2023-03-11T07:11:23.603Z,7.92
2023-03-11T07:13:55.678Z,8.15
2023-03-11T07:16:27.267Z,8.45
2023-03-11T07:19:03.706Z,8.70
2023-03-11T07:21:33.801Z,8.44
2023-03-11T07:24:04.179Z,8.62
2023-03-11T07:26:35.171Z,8.73
2023-03-11T07:29:04.361Z,8.90
2023-03-11T07:31:42.636Z,8.93
2023-03-11T07:34:16.871Z,8.62
2023-03-11T07:36:46.031Z,9.01
2023-03-11T07:39:17.720Z,8.94
2023-03-11T07:41:47.635Z,8.56
2023-03-11T07:44:18.203Z,8.42
2023-03-11T07:46:48.033Z,8.51
2023-03-11T07:49:18.662Z,8.94
2023-03-11T07:51:47.783Z,8.68
2023-03-11T07:54:17.272Z,8.61
2023-03-11T07:56:46.643Z,9.08
2023-03-11T07:59:15.702Z,9.14
2023-03-11T08:01:47.411Z,9.41
2023-03-11T08:04:18.781Z,9.46
2023-03-11T08:06:49.461Z,8.44
2023-03-11T08:09:18.957Z,8.61
2023-03-11T08:11:49.692Z,8.45
2023-03-11T08:14:24.978Z,8.63
2023-03-11T08:16:57.478Z,8.50
2023-03-11T08:19:38.243Z,8.38
2023-03-11T08:22:07.327Z,8.12
2023-03-11T08:24:38.233Z,8.39
2023-03-11T08:27:09.797Z,8.38
2023-03-11T08:29:41.784Z,8.22
2023-03-11T08:32:11.051Z,8.77
2023-03-11T08:34:41.679Z,8.92
2023-03-11T08:37:13.099Z,9.11
2023-03-11T08:39:42.158Z,8.98
2023-03-11T08:42:11.655Z,8.23
2023-03-11T08:44:40.820Z,9.59
2023-03-11T08:47:10.616Z,9.45
2023-03-11T08:49:41.139Z,9.30
2023-03-11T08:52:12.705Z,8.52
2023-03-11T08:54:44.635Z,8.57
2023-03-11T08:57:14.904Z,9.09
2023-03-11T08:59:44.284Z,9.00
2023-03-11T09:02:13.538Z,8.53
2023-03-11T09:04:44.018Z,8.64
2023-03-11T09:07:14.296Z,8.71
2023-03-11T09:09:43.446Z,9.01
2023-03-11T09:12:14.207Z,8.30
2023-03-11T09:14:46.217Z,8.30
2023-03-11T09:17:15.426Z,8.20
2023-03-11T09:19:45.792Z,8.76
2023-03-11T09:22:20.701Z,8.95
2023-03-11T09:24:50.148Z,8.72
2023-03-11T09:27:20.217Z,9.26
2023-03-11T09:29:49.619Z,9.18
2023-03-11T09:32:18.786Z,9.02
2023-03-11T09:34:50.562Z,8.67
2023-03-11T09:37:19.599Z,8.62
2023-03-11T09:39:51.890Z,8.40
2023-03-11T09:42:51.575Z,7.72
2023-03-11T09:45:31.440Z,8.30
2023-03-11T09:48:22.735Z,7.63
2023-03-11T09:50:59.424Z,8.34
2023-03-11T09:53:39.279Z,8.07
2023-03-11T09:56:10.634Z,8.16
2023-03-11T09:58:47.131Z,7.93
2023-03-11T10:01:20.029Z,7.98
2023-03-11T10:03:51.252Z,7.73
2023-03-11T10:06:25.127Z,7.65
2023-03-11T10:09:05.117Z,7.32
2023-03-11T10:11:51.664Z,7.81
2023-03-11T10:15:02.350Z,7.75
2023-03-11T10:17:58.311Z,8.12
2023-03-11T10:20:32.118Z,7.12
2023-03-11T10:23:07.910Z,8.14
2023-03-11T10:25:51.264Z,8.11
2023-03-11T10:28:30.509Z,7.89
2023-03-11T10:31:06.035Z,7.59
2023-03-11T10:33:40.417Z,7.49
2023-03-11T10:36:15.499Z,7.95
2023-03-11T10:38:51.402Z,7.74
2023-03-11T10:41:24.457Z,7.94
2023-03-11T10:43:59.031Z,8.01
2023-03-11T10:46:29.792Z,7.87
2023-03-11T10:48:59.397Z,7.92
2023-03-11T10:51:36.974Z,7.56
2023-03-11T10:54:07.771Z,7.68
2023-03-11T10:56:41.386Z,7.76
2023-03-11T10:59:25.778Z,7.44
2023-03-11T11:02:05.263Z,7.51
2023-03-11T11:04:39.368Z,7.78
2023-03-11T11:07:30.597Z,7.74
2023-03-11T11:10:35.541Z,7.74
2023-03-11T11:13:18.600Z,7.66
2023-03-11T11:16:01.797Z,8.06
2023-03-11T11:18:35.150Z,7.85
2023-03-11T11:21:10.376Z,7.78
2023-03-11T11:23:43.890Z,8.11
2023-03-11T11:26:20.803Z,8.14
2023-03-11T11:29:08.993Z,8.03
2023-03-11T11:31:43.250Z,8.06
2023-03-11T11:34:30.982Z,7.94
2023-03-11T11:37:06.244Z,8.15
2023-03-11T11:39:46.041Z,8.35
2023-03-11T11:42:16.980Z,8.08
2023-03-11T11:44:50.667Z,8.27
2023-03-11T11:47:25.550Z,8.36
2023-03-11T11:50:02.745Z,8.26
2023-03-11T11:52:34.283Z,8.27
2023-03-11T11:55:21.057Z,7.87
2023-03-11T11:57:52.611Z,8.14
2023-03-11T12:00:25.590Z,8.21
2023-03-11T12:03:22.235Z,8.31
2023-03-11T12:06:00.391Z,8.02
2023-03-11T12:08:38.685Z,8.20
2023-03-11T12:11:13.491Z,7.92
2023-03-11T12:14:03.169Z,7.92
2023-03-11T12:16:46.444Z,8.24
2023-03-11T12:19:23.274Z,7.88
2023-03-11T12:22:12.318Z,8.09
2023-03-11T12:25:00.513Z,7.96
2023-03-11T12:27:35.326Z,7.61
2023-03-11T12:30:16.533Z,8.00
2023-03-11T12:32:50.719Z,7.37
2023-03-11T12:35:27.784Z,8.15
2023-03-11T12:38:02.732Z,8.11
2023-03-11T12:40:59.904Z,8.37
2023-03-11T12:44:20.240Z,8.34
2023-03-11T12:47:21.553Z,8.01
2023-03-11T12:49:54.985Z,8.26
2023-03-11T12:52:30.802Z,7.98
2023-03-11T12:55:26.016Z,8.45
2023-03-11T12:58:02.345Z,8.33
2023-03-11T13:00:44.778Z,8.32
2023-03-11T13:03:46.074Z,8.16
2023-03-11T13:06:42.875Z,8.71
2023-03-11T13:09:18.156Z,8.67
2023-03-11T13:11:51.386Z,8.75
2023-03-11T13:14:35.964Z,8.53
2023-03-11T13:17:32.559Z,8.67
2023-03-11T13:20:48.398Z,8.73
2023-03-11T13:27:06.841Z,8.84
2023-03-11T13:29:59.486Z,8.80
2023-03-11T13:32:53.836Z,8.67
2023-03-11T13:35:38.798Z,8.74
2023-03-11T13:38:22.817Z,8.59
2023-03-11T13:40:53.777Z,8.75
2023-03-11T13:43:27.833Z,8.82
2023-03-11T13:46:02.572Z,8.83
2023-03-11T13:48:42.188Z,8.87
2023-03-11T13:51:19.305Z,8.90
2023-03-11T13:53:53.819Z,9.25
2023-03-11T13:56:29.005Z,9.03
2023-03-11T13:59:17.521Z,9.16
2023-03-11T14:01:52.023Z,9.28
2023-03-11T14:04:28.346Z,8.78
2023-03-11T14:06:59.983Z,9.25
2023-03-11T14:09:30.323Z,9.09
2023-03-11T14:12:10.903Z,9.36
2023-03-11T14:14:49.883Z,8.77
2023-03-11T14:18:09.998Z,9.29
2023-03-11T14:21:10.050Z,7.75
2023-03-11T14:25:39.888Z,8.40
2023-03-11T14:29:01.113Z,8.81
2023-03-11T14:36:16.120Z,8.13
2023-03-11T14:40:58.337Z,8.07
2023-03-11T14:43:54.156Z,8.47
2023-03-11T14:46:36.523Z,8.81
2023-03-11T14:49:51.461Z,8.15
2023-03-11T14:52:42.316Z,8.26
2023-03-11T14:55:18.493Z,8.42
2023-03-11T14:57:52.336Z,8.71
2023-03-11T15:00:31.103Z,8.61
2023-03-11T15:03:21.469Z,9.33
2023-03-11T15:05:58.017Z,8.74
2023-03-11T15:08:41.304Z,8.86
2023-03-11T15:11:49.080Z,8.12
2023-03-11T15:14:24.053Z,9.30
2023-03-11T15:16:58.049Z,9.55
2023-03-11T15:19:38.097Z,9.29
2023-03-11T15:22:25.768Z,9.11
2023-03-11T15:24:57.310Z,9.51
2023-03-11T15:27:33.437Z,9.56
2023-03-11T15:30:25.244Z,9.63
2023-03-11T15:33:01.294Z,9.58
2023-03-11T15:35:32.133Z,9.45
2023-03-11T15:38:21.335Z,9.71
2023-03-11T15:40:57.599Z,9.70
2023-03-11T15:43:33.863Z,9.90
2023-03-11T15:46:05.324Z,9.48
2023-03-11T15:48:39.687Z,9.29
2023-03-11T15:51:23.027Z,9.12
2023-03-11T15:53:52.657Z,9.79
2023-03-11T15:56:26.188Z,9.92
2023-03-11T15:58:55.569Z,9.63
2023-03-11T16:01:29.245Z,9.90
2023-03-11T16:04:00.029Z,9.87
2023-03-11T16:06:29.693Z,9.80
2023-03-11T16:08:59.028Z,9.87
2023-03-11T16:11:32.759Z,9.73
2023-03-11T16:14:02.143Z,9.78
2023-03-11T16:16:34.783Z,9.73
2023-03-11T16:19:04.371Z,9.56
2023-03-11T16:21:38.579Z,9.52
2023-03-11T16:24:09.309Z,9.59
2023-03-11T16:26:38.973Z,9.76
2023-03-11T16:29:18.630Z,9.90
2023-03-11T16:31:52.255Z,9.77
2023-03-11T16:34:22.333Z,9.87
2023-03-11T16:36:51.789Z,9.96
2023-03-11T16:39:26.468Z,9.35
2023-03-11T16:41:55.844Z,9.43
2023-03-11T16:44:25.401Z,9.70
2023-03-11T16:46:56.133Z,9.65
2023-03-11T16:49:25.512Z,9.69
2023-03-11T16:51:54.883Z,9.69
2023-03-11T16:54:24.512Z,9.45
2023-03-11T16:56:57.294Z,9.79
2023-03-11T16:59:26.762Z,9.55
2023-03-11T17:01:57.653Z,9.72
2023-03-11T17:04:27.806Z,9.30
2023-03-11T17:06:57.582Z,9.17
2023-03-11T17:09:27.147Z,8.95
2023-03-11T17:11:56.666Z,9.91
2023-03-11T17:14:27.208Z,9.61
2023-03-11T17:17:00.144Z,8.65
2023-03-11T17:19:32.153Z,9.80
2023-03-11T17:22:03.248Z,9.80
2023-03-11T17:24:32.791Z,10.08
2023-03-11T17:27:02.399Z,10.14
2023-03-11T17:29:34.924Z,10.05
2023-03-11T17:32:07.609Z,9.96
2023-03-11T17:34:37.731Z,10.34
2023-03-11T17:37:06.944Z,10.31
2023-03-11T17:39:37.002Z,10.30
2023-03-11T17:42:06.866Z,10.27
2023-03-11T17:44:50.483Z,9.98
2023-03-11T17:47:27.322Z,9.96
2023-03-11T17:49:57.368Z,9.82
2023-03-11T17:52:29.105Z,9.46
2023-03-11T17:54:59.132Z,10.13
2023-03-11T17:57:39.914Z,10.09
2023-03-11T18:00:15.809Z,9.65
2023-03-11T18:02:46.836Z,9.75
2023-03-11T18:05:21.952Z,9.86
2023-03-11T18:08:01.430Z,9.73
2023-03-11T18:10:42.363Z,9.50
2023-03-11T18:13:12.560Z,9.14
2023-03-11T18:16:05.757Z,9.74
2023-03-11T18:18:44.764Z,9.82
2023-03-11T18:21:16.147Z,9.80
2023-03-11T18:23:48.310Z,9.63
2023-03-11T18:26:20.097Z,9.92
2023-03-11T18:28:49.962Z,9.92
2023-03-11T18:31:24.292Z,9.99
2023-03-11T18:33:56.973Z,9.94
2023-03-11T18:36:29.473Z,9.89
2023-03-11T18:39:21.842Z,9.71
2023-03-11T18:41:54.436Z,10.00
2023-03-11T18:44:23.818Z,9.49
2023-03-11T18:46:54.242Z,9.81
2023-03-11T18:49:25.373Z,9.05
2023-03-11T18:51:55.066Z,9.47
2023-03-11T18:54:25.209Z,9.61
2023-03-11T18:56:57.084Z,9.02
2023-03-11T18:59:30.323Z,9.76
2023-03-11T19:02:01.865Z,9.29
2023-03-11T19:04:33.174Z,9.81
2023-03-11T19:07:03.502Z,10.07
2023-03-11T19:09:33.530Z,10.05
2023-03-11T19:12:05.977Z,9.06
2023-03-11T19:14:38.209Z,9.13
2023-03-11T19:17:08.415Z,9.53
2023-03-11T19:19:39.634Z,9.09
2023-03-11T19:22:09.602Z,9.86
2023-03-11T19:24:39.793Z,9.72
2023-03-11T19:27:09.523Z,8.97
2023-03-11T19:29:39.194Z,10.28
2023-03-11T19:32:12.774Z,10.33
2023-03-11T19:34:45.454Z,10.32
2023-03-11T19:37:17.243Z,10.15
2023-03-11T19:39:46.931Z,10.31
2023-03-11T19:42:20.539Z,10.17
2023-03-11T19:44:50.278Z,10.26
2023-03-11T19:47:19.512Z,10.18
2023-03-11T19:49:50.513Z,10.31
2023-03-11T19:52:20.107Z,10.16
2023-03-11T19:54:49.212Z,10.14
2023-03-11T19:57:20.188Z,10.49
2023-03-11T19:59:50.168Z,9.78
2023-03-11T20:02:19.563Z,10.29
2023-03-11T20:04:51.040Z,10.58
2023-03-11T20:07:20.748Z,10.27
2023-03-11T20:09:50.132Z,10.21
2023-03-11T20:12:21.399Z,10.29
2023-03-11T20:14:53.591Z,9.90
2023-03-11T20:17:26.731Z,9.89
2023-03-11T20:20:02.946Z,9.81
2023-03-11T20:23:20.268Z,9.55
2023-03-11T20:25:53.067Z,8.81
2023-03-11T20:28:35.626Z,8.78
2023-03-11T20:31:13.870Z,9.46
2023-03-11T20:33:55.307Z,8.50
2023-03-11T20:36:31.257Z,9.61
2023-03-11T20:40:09.766Z,8.32
2023-03-11T20:42:29.956Z,8.37
2023-03-11T20:45:05.156Z,9.37
2023-03-11T20:47:37.803Z,9.34
2023-03-11T20:50:11.025Z,10.02
2023-03-11T20:52:42.226Z,9.83
2023-03-11T20:55:15.208Z,9.75
2023-03-11T20:57:44.906Z,9.86
2023-03-11T21:00:15.215Z,9.64
2023-03-11T21:02:46.803Z,9.44
2023-03-11T21:05:17.139Z,8.79
2023-03-11T21:07:51.019Z,9.31
2023-03-11T21:10:26.037Z,8.66
2023-03-11T21:13:09.041Z,9.76
2023-03-11T21:15:38.785Z,9.70
2023-03-11T21:18:11.473Z,9.72
2023-03-11T21:20:41.344Z,8.24
2023-03-11T21:23:12.354Z,9.64
2023-03-11T21:25:43.809Z,9.55
2023-03-11T21:28:14.087Z,9.70
2023-03-11T21:30:44.279Z,9.51
2023-03-11T21:33:14.206Z,9.47
2023-03-11T21:35:44.384Z,9.48
2023-03-11T21:38:17.589Z,9.91
2023-03-11T21:40:46.922Z,9.66
2023-03-11T21:43:16.670Z,9.63
2023-03-11T21:45:48.205Z,9.54
2023-03-11T21:48:18.146Z,9.55
2023-03-11T21:50:48.891Z,9.50
2023-03-11T21:53:25.628Z,9.48
2023-03-11T21:55:55.155Z,9.54
2023-03-11T21:58:24.736Z,9.26
2023-03-11T22:00:53.992Z,9.51
2023-03-11T22:03:24.069Z,9.49
2023-03-11T22:05:57.872Z,9.18
2023-03-11T22:08:28.834Z,9.44
2023-03-11T22:10:57.972Z,9.10
2023-03-11T22:13:27.455Z,8.99
2023-03-11T22:15:57.110Z,9.62
2023-03-11T22:18:26.356Z,9.11
2023-03-11T22:20:59.067Z,8.89
2023-03-11T22:23:29.852Z,8.80
2023-03-11T22:25:59.446Z,9.11
2023-03-11T22:28:29.827Z,8.91
2023-03-11T22:30:59.796Z,9.30
2023-03-11T22:33:30.248Z,9.16
2023-03-11T22:36:02.199Z,9.08
2023-03-11T22:38:34.392Z,9.20
2023-03-11T22:41:11.681Z,8.92
2023-03-11T22:43:41.590Z,8.75
2023-03-11T22:46:19.286Z,8.96
2023-03-11T22:48:49.188Z,9.06
2023-03-11T22:51:18.670Z,8.49
2023-03-11T22:53:50.061Z,8.55
2023-03-11T22:56:22.702Z,8.64
2023-03-11T22:58:52.552Z,8.69
2023-03-11T23:01:22.197Z,8.78
2023-03-11T23:03:51.899Z,8.72
2023-03-11T23:06:22.078Z,8.92
2023-03-11T23:08:52.808Z,9.19
2023-03-11T23:11:23.499Z,8.96
2023-03-11T23:13:52.828Z,8.77
2023-03-11T23:16:24.313Z,8.64
2023-03-11T23:18:56.026Z,7.80
2023-03-11T23:21:27.549Z,7.83
2023-03-11T23:23:58.505Z,7.56
2023-03-11T23:26:28.570Z,7.89
2023-03-11T23:28:58.503Z,7.61
2023-03-11T23:31:28.565Z,7.62
2023-03-11T23:33:58.089Z,7.32
2023-03-11T23:36:30.448Z,7.55
2023-03-11T23:39:00.914Z,7.59
2023-03-11T23:41:30.471Z,7.55
2023-03-11T23:43:59.863Z,7.59
2023-03-11T23:46:29.122Z,7.20
2023-03-11T23:48:58.566Z,7.74
2023-03-11T23:51:27.638Z,7.34
2023-03-11T23:53:56.859Z,7.50
2023-03-11T23:56:27.556Z,7.74
2023-03-11T23:58:56.626Z,7.30
